createdAt,value
2023-05-05T00:02:29.339Z,9.85
2023-05-05T00:07:32.412Z,9.65
2023-05-05T00:12:36.875Z,9.30
2023-05-05T00:17:39.869Z,9.43
2023-05-05T00:22:42.878Z,9.60
2023-05-05T00:27:47.148Z,9.18
2023-05-05T00:32:50.903Z,8.68
2023-05-05T00:37:54.073Z,7.95
2023-05-05T00:42:59.558Z,7.65
2023-05-05T00:48:02.844Z,7.85
2023-05-05T00:53:07.852Z,6.55
2023-05-05T00:58:13.405Z,6.20
2023-05-05T01:03:16.792Z,5.88
2023-05-05T01:08:30.353Z,5.82
2023-05-05T01:13:50.899Z,6.60
2023-05-05T01:19:01.966Z,6.78
2023-05-05T01:24:40.057Z,6.35
2023-05-05T01:30:00.982Z,6.15
2023-05-05T01:35:14.860Z,4.07
2023-05-05T01:40:22.683Z,4.90
2023-05-05T01:45:29.761Z,5.47
2023-05-05T01:50:35.635Z,5.55
2023-05-05T01:55:40.619Z,4.88
2023-05-05T02:00:44.595Z,4.40
2023-05-05T02:05:51.365Z,4.60
2023-05-05T02:10:55.751Z,5.00
2023-05-05T02:15:59.335Z,4.07
2023-05-05T02:21:04.121Z,3.40
2023-05-05T02:26:09.283Z,3.50
2023-05-05T02:31:14.969Z,3.33
2023-05-05T02:36:22.828Z,3.40
2023-05-05T02:41:34.807Z,3.90
2023-05-05T02:46:44.181Z,3.20
2023-05-05T02:51:48.904Z,2.93
2023-05-05T02:56:59.903Z,3.10
2023-05-05T03:02:15.645Z,2.73
2023-05-05T03:07:26.730Z,2.83
2023-05-05T03:12:38.575Z,2.60
2023-05-05T03:17:54.020Z,2.50
2023-05-05T03:22:59.493Z,3.13
2023-05-05T03:28:02.507Z,2.40
2023-05-05T03:33:05.852Z,2.77
2023-05-05T03:38:10.480Z,3.23
2023-05-05T03:43:13.601Z,3.23
2023-05-05T03:48:16.944Z,2.90
2023-05-05T03:53:22.082Z,3.07
2023-05-05T03:58:25.463Z,3.40
2023-05-05T04:03:28.652Z,3.40
2023-05-05T04:08:33.831Z,3.67
2023-05-05T04:13:36.924Z,3.70
2023-05-05T04:18:40.211Z,3.30
2023-05-05T04:23:44.781Z,4.10
2023-05-05T04:28:47.841Z,3.63
2023-05-05T04:33:52.621Z,4.70
2023-05-05T04:38:57.273Z,4.43
2023-05-05T04:44:00.729Z,4.67
2023-05-05T04:49:05.806Z,4.67
2023-05-05T04:54:11.244Z,5.20
2023-05-05T04:59:14.390Z,5.10
2023-05-05T05:04:18.634Z,5.07
2023-05-05T05:09:23.308Z,6.13
2023-05-05T05:14:28.060Z,6.00
2023-05-05T05:19:31.487Z,6.57
2023-05-05T05:24:36.476Z,7.10
2023-05-05T05:29:39.630Z,6.83
2023-05-05T05:34:42.685Z,7.80
2023-05-05T05:39:53.932Z,8.37
2023-05-05T05:44:59.541Z,8.87
2023-05-05T05:50:04.945Z,8.53
2023-05-05T05:55:10.764Z,8.70
2023-05-05T06:00:16.929Z,8.97
2023-05-05T06:05:27.039Z,8.77
2023-05-05T06:10:32.230Z,10.57
2023-05-05T06:15:42.869Z,10.83
2023-05-05T06:20:51.739Z,10.47
2023-05-05T06:25:58.365Z,10.03
2023-05-05T06:31:01.426Z,9.60
2023-05-05T06:36:04.892Z,10.00
2023-05-05T06:41:09.305Z,9.00
2023-05-05T06:46:12.673Z,10.55
2023-05-05T06:51:16.273Z,9.18
2023-05-05T06:56:21.044Z,9.20
2023-05-05T07:01:24.192Z,9.35
2023-05-05T07:06:27.381Z,9.27
2023-05-05T07:11:31.975Z,8.55
2023-05-05T07:16:37.309Z,8.57
2023-05-05T07:21:40.751Z,8.85
2023-05-05T07:26:47.213Z,8.77
2023-05-05T07:31:50.961Z,9.02
2023-05-05T07:36:56.468Z,8.95
2023-05-05T07:42:01.732Z,8.35
2023-05-05T07:47:04.791Z,8.98
2023-05-05T07:52:08.022Z,8.35
2023-05-05T07:57:12.715Z,9.50
2023-05-05T08:02:15.734Z,8.25
2023-05-05T08:07:18.768Z,7.68
2023-05-05T08:12:23.272Z,7.03
2023-05-05T08:17:27.251Z,6.32
2023-05-05T08:22:30.613Z,6.45
2023-05-05T08:27:35.534Z,5.95
2023-05-05T08:32:39.226Z,5.70
2023-05-05T08:37:42.283Z,4.90
2023-05-05T08:42:46.687Z,5.40
2023-05-05T08:47:51.133Z,5.28
2023-05-05T08:52:59.247Z,4.55
2023-05-05T08:58:04.281Z,3.58
2023-05-05T09:03:08.683Z,3.95
2023-05-05T09:08:12.427Z,3.83
2023-05-05T09:13:17.319Z,3.92
2023-05-05T09:18:20.485Z,4.28
2023-05-05T09:23:24.033Z,4.57
2023-05-05T09:28:28.458Z,4.38
2023-05-05T09:33:32.151Z,4.15
2023-05-05T09:38:36.565Z,1.45
2023-05-05T09:43:52.975Z,1.67
2023-05-05T09:48:56.257Z,1.98
2023-05-05T09:53:59.417Z,2.10
2023-05-05T09:59:11.095Z,3.80
2023-05-05T10:04:33.165Z,2.38
2023-05-05T10:09:36.500Z,2.10
2023-05-05T10:14:41.597Z,3.25
2023-05-05T10:19:45.994Z,2.03
2023-05-05T10:24:54.351Z,1.50
2023-05-05T10:30:04.834Z,1.95
2023-05-05T10:35:11.379Z,2.17
2023-05-05T10:40:15.234Z,2.00
2023-05-05T10:45:19.910Z,2.35
2023-05-05T10:50:31.004Z,2.63
2023-05-05T10:55:41.069Z,2.70
2023-05-05T11:00:52.982Z,2.80
2023-05-05T11:06:13.669Z,3.05
2023-05-05T11:11:16.669Z,2.42
2023-05-05T11:16:48.288Z,2.55
2023-05-05T11:22:02.186Z,1.80
2023-05-05T11:27:05.726Z,0.95
2023-05-05T11:32:16.651Z,1.15
2023-05-05T11:37:24.365Z,1.40
2023-05-05T11:42:27.810Z,1.10
2023-05-05T11:47:35.155Z,0.80
2023-05-05T11:52:38.130Z,0.90
2023-05-05T11:57:41.330Z,1.20
2023-05-05T12:02:46.170Z,0.98
2023-05-05T12:07:51.257Z,0.90
2023-05-05T12:12:55.486Z,0.90
2023-05-05T12:18:02.808Z,1.05
2023-05-05T12:23:08.143Z,0.98
2023-05-05T12:28:11.307Z,0.77
2023-05-05T12:33:16.027Z,1.52
2023-05-05T12:38:19.136Z,0.60
2023-05-05T12:43:29.328Z,0.90
2023-05-05T12:48:34.392Z,0.40
2023-05-05T12:53:37.619Z,0.80
2023-05-05T12:58:52.224Z,0.75
2023-05-05T13:04:13.960Z,0.80
2023-05-05T13:09:26.798Z,1.10
2023-05-05T13:14:30.681Z,1.10
2023-05-05T13:19:41.862Z,1.10
2023-05-05T13:24:51.794Z,2.30
2023-05-05T13:29:56.017Z,1.93
2023-05-05T13:35:08.400Z,1.60
2023-05-05T13:40:13.737Z,1.30
2023-05-05T13:45:19.830Z,1.03
2023-05-05T13:50:24.954Z,1.00
2023-05-05T13:55:29.496Z,1.50
2023-05-05T14:00:32.735Z,1.13
2023-05-05T14:05:37.905Z,0.97
2023-05-05T14:10:41.396Z,1.02
2023-05-05T14:15:44.426Z,0.90
2023-05-05T14:20:48.831Z,0.80
2023-05-05T14:25:52.072Z,1.13
2023-05-05T14:30:55.689Z,1.20
2023-05-05T14:36:00.154Z,1.02
2023-05-05T14:41:03.182Z,0.82
2023-05-05T14:46:09.371Z,0.88
2023-05-05T14:51:15.251Z,0.85
2023-05-05T14:56:21.855Z,0.70
2023-05-05T15:01:25.947Z,0.93
2023-05-05T15:06:30.576Z,0.85
2023-05-05T15:11:33.516Z,1.10
2023-05-05T15:16:36.696Z,0.82
2023-05-05T15:21:41.253Z,0.80
2023-05-05T15:26:44.269Z,0.80
2023-05-05T15:31:47.345Z,1.15
2023-05-05T15:36:52.366Z,1.17
2023-05-05T15:41:55.592Z,1.02
2023-05-05T15:46:58.566Z,0.90
2023-05-05T15:52:02.995Z,1.15
2023-05-05T15:57:06.326Z,1.15
2023-05-05T16:02:09.642Z,1.00
2023-05-05T16:07:14.392Z,1.30
2023-05-05T16:12:17.349Z,1.20
2023-05-05T16:17:22.954Z,1.42
2023-05-05T16:22:27.566Z,1.30
2023-05-05T16:27:30.669Z,1.20
2023-05-05T16:32:33.789Z,1.27
2023-05-05T16:37:38.502Z,1.05
2023-05-05T16:42:43.675Z,0.88
2023-05-05T16:47:47.583Z,0.93
2023-05-05T16:52:52.318Z,1.02
2023-05-05T16:57:55.386Z,1.08
2023-05-05T17:02:58.796Z,1.15
2023-05-05T17:08:03.968Z,1.67
2023-05-05T17:13:08.977Z,1.20
2023-05-05T17:18:12.115Z,1.20
2023-05-05T17:23:16.798Z,1.30
2023-05-05T17:28:20.125Z,1.40
2023-05-05T17:33:23.179Z,1.40
2023-05-05T17:38:30.114Z,1.42
2023-05-05T17:43:33.480Z,1.40
2023-05-05T17:48:36.475Z,1.67
2023-05-05T17:53:41.918Z,1.60
2023-05-05T17:58:44.966Z,1.40
2023-05-05T18:03:48.092Z,1.48
2023-05-05T18:08:52.839Z,1.58
2023-05-05T18:13:56.255Z,1.90
2023-05-05T18:18:59.214Z,1.60
2023-05-05T18:24:15.782Z,1.90
2023-05-05T18:29:23.421Z,1.80
2023-05-05T18:34:26.528Z,1.80
2023-05-05T18:39:30.978Z,2.03
2023-05-05T18:44:35.005Z,1.55
2023-05-05T18:49:38.009Z,1.63
2023-05-05T18:54:42.361Z,1.85
2023-05-05T18:59:45.311Z,1.65
2023-05-05T19:04:50.713Z,1.60
2023-05-05T19:09:55.128Z,2.00
2023-05-05T19:14:58.179Z,2.80
2023-05-05T19:20:01.762Z,2.20
2023-05-05T19:25:06.866Z,2.13
2023-05-05T19:30:11.399Z,2.60
2023-05-05T19:35:14.434Z,2.63
2023-05-05T19:40:18.932Z,2.85
2023-05-05T19:45:22.178Z,2.47
2023-05-05T19:50:26.328Z,3.00
2023-05-05T19:55:30.937Z,3.10
2023-05-05T20:00:34.176Z,2.90
2023-05-05T20:05:38.497Z,3.20
2023-05-05T20:10:43.027Z,3.33
2023-05-05T20:15:46.247Z,3.10
2023-05-05T20:20:49.670Z,3.10
2023-05-05T20:25:54.216Z,3.13
2023-05-05T20:30:57.345Z,3.43
2023-05-05T20:36:00.550Z,3.20
2023-05-05T20:41:05.028Z,3.43
2023-05-05T20:46:13.553Z,3.33
2023-05-05T20:51:16.686Z,3.70
2023-05-05T20:56:23.454Z,4.33
2023-05-05T21:01:26.727Z,4.30
2023-05-05T21:06:30.766Z,4.50
2023-05-05T21:11:35.160Z,4.70
2023-05-05T21:16:38.333Z,4.33
2023-05-05T21:21:41.386Z,4.30
2023-05-05T21:26:46.410Z,4.27
2023-05-05T21:31:49.815Z,4.97
2023-05-05T21:36:52.884Z,4.67
2023-05-05T21:41:57.983Z,6.37
2023-05-05T21:47:01.022Z,5.00
2023-05-05T21:52:04.096Z,4.80
2023-05-05T21:57:08.496Z,5.23
2023-05-05T22:02:15.152Z,5.23
2023-05-05T22:07:18.762Z,5.57
2023-05-05T22:12:23.281Z,6.03
2023-05-05T22:17:26.264Z,5.43
2023-05-05T22:22:29.413Z,5.30
2023-05-05T22:27:33.851Z,5.50
2023-05-05T22:32:36.906Z,4.87
2023-05-05T22:37:40.227Z,5.63
2023-05-05T22:42:44.850Z,5.40
2023-05-05T22:47:48.019Z,5.23
2023-05-05T22:52:51.593Z,5.70
2023-05-05T22:57:56.164Z,5.60
2023-05-05T23:02:59.306Z,5.50
2023-05-05T23:08:02.670Z,5.10
2023-05-05T23:13:07.326Z,5.77
2023-05-05T23:18:10.613Z,5.30
2023-05-05T23:23:13.823Z,6.33
2023-05-05T23:28:18.601Z,5.77
2023-05-05T23:33:21.706Z,5.43
2023-05-05T23:38:24.854Z,5.57
2023-05-05T23:43:29.524Z,5.53
2023-05-05T23:48:32.421Z,5.57
2023-05-05T23:53:35.388Z,5.03
2023-05-05T23:58:39.784Z,6.10
